Main page
METAR-TAF:

METAR-TAF

Airports :

Mardin Airport

Mardin, Turkey

latitude: 37-13-58N, longitude: 40-38-26E, elevation: 527 m

Current weather observation

The report was made 1 hour and 1 minutes ago, at 03:50 UTC
Wind 1 kt from variable directions
Temperature 28°C
Humidity 37%
Pressure 1004 hPa
Visibility 10 km or more
no clouds below 1500 m and no cumulonimbus

METAR: LTCR 180350Z VRB01KT CAVOK 28/12 Q1004

Time: 07:51 (04:51 UTC)

Forecast

The report was made 3 hours and 11 minutes ago, at 01:40 UTC
Forecast valid from 18 at 03 UTC to 18 at 12 UTC
Wind 2 kt from variable directions
Visibility 10 km or more
no clouds below 1500 m and no cumulonimbus

TAF: LTCR 180140Z 1803/1812 VRB02KT CAVOK

Weather observations and forecasts of more than 4000 airports (METAR and TAF reports).

The available stations are represented by yellow and red dots on the map.

Hover mouse over dot to see the name of the station.

Then click to see weather observations and forecasts.

To change the map : click on the green buttons with a black cross to zoom in, on the green button with a dash to zoom out, or on the green arrows for adjacent maps.


METAR-TAF: